Time;durP1;ratioP1;P1;durP2;ratioP2;P2;SDS_P1;SDS_P2;PMS_P1;PMS_P2;Temp;Humidity;BMP_temperature;BMP_pressure;BME280_temperature;BME280_humidity;BME280_pressure;Samples;Min_cycle;Max_cycle;Signal;HPM_P1;HPM_P2
2024/02/05 00:01:29;;;;;;;;;;;;;;;9.32;64.30;101545.72;5107391;28;19911;-81
2024/02/05 00:04:21;;;;;;;;;;;;;;;9.27;64.28;101541.16;5106768;28;19916;-79
2024/02/05 00:07:13;;;;;;;;;;;;;;;9.07;64.51;101548.69;5118161;28;19912;-80
2024/02/05 00:10:08;;;;;;;;;;;;;;;8.76;64.62;101542.69;5107069;28;19911;-81
2024/02/05 00:13:00;;;;;;;;;;;;;;;8.68;65.13;101535.97;5120142;28;19920;-80
2024/02/05 00:15:52;;;;;;;;;;;;;;;8.84;64.68;101548.31;5117340;28;19912;-78
2024/02/05 00:18:44;;;;;;;;;;;;;;;8.94;64.94;101550.94;5106411;28;19919;-77
2024/02/05 00:21:37;;;;;;;;;;;;;;;9.12;63.95;101544.03;5115646;28;19911;-78
2024/02/05 00:24:30;;;;;;;;;;;;;;;9.35;63.04;101548.69;5098574;28;19920;-77
2024/02/05 00:27:25;;;;;;;;;;;;;;;9.30;63.06;101542.50;5098836;28;19916;-78
2024/02/05 00:30:17;;;;;;;;;;;;;;;9.01;63.90;101540.59;5096774;28;20368;-77
2024/02/05 00:33:09;;;;;;;;;;;;;;;8.84;64.12;101540.16;5094485;28;19912;-77
2024/02/05 00:36:01;;;;;;;;;;;;;;;8.69;65.34;101537.56;5098097;28;20284;-78
2024/02/05 00:38:54;;;;;;;;;;;;;;;8.48;66.58;101544.25;5094446;28;19920;-78
2024/02/05 00:41:46;;;;;;;;;;;;;;;8.63;66.00;101538.72;5093538;28;19912;-77
2024/02/05 00:44:38;;;;;;;;;;;;;;;8.75;66.80;101541.06;5097100;28;20300;-78
2024/02/05 00:47:30;;;;;;;;;;;;;;;8.87;67.55;101539.63;5094479;28;19912;-76
2024/02/05 00:50:22;;;;;;;;;;;;;;;8.76;65.52;101526.41;5098400;28;20368;-77
2024/02/05 00:53:11;;;;;;;;;;;;;;;8.62;66.35;101525.44;5096418;28;19912;-77
2024/02/05 00:56:03;;;;;;;;;;;;;;;8.67;66.14;101522.69;5093654;28;20388;-77
2024/02/05 00:58:53;;;;;;;;;;;;;;;8.50;66.56;101518.47;5093968;28;19915;-77
2024/02/05 01:01:45;;;;;;;;;;;;;;;8.38;67.12;101515.28;5095577;28;19920;-77
2024/02/05 01:04:37;;;;;;;;;;;;;;;8.39;66.78;101511.50;5092506;28;19911;-77
2024/02/05 01:07:29;;;;;;;;;;;;;;;8.45;66.01;101507.66;5096411;28;20376;-77
2024/02/05 01:10:18;;;;;;;;;;;;;;;8.62;65.66;101510.00;5094678;28;19916;-78
2024/02/05 01:13:11;;;;;;;;;;;;;;;8.57;65.52;101510.84;5098392;28;19912;-78
2024/02/05 01:16:04;;;;;;;;;;;;;;;8.59;65.90;101508.63;5095768;28;19915;-77
2024/02/05 01:18:56;;;;;;;;;;;;;;;8.61;65.67;101510.25;5093415;28;19916;-77
2024/02/05 01:21:45;;;;;;;;;;;;;;;8.74;65.54;101506.91;5098130;28;19912;-77
2024/02/05 01:24:46;;;;;;;;;;;;;;;8.88;65.25;101518.75;5094648;28;19912;-77
2024/02/05 01:27:37;;;;;;;;;;;;;;;8.85;65.58;101508.44;5072871;28;19912;-79
2024/02/05 01:30:29;;;;;;;;;;;;;;;8.75;65.71;101503.09;5090973;28;19915;-77
2024/02/05 01:33:21;;;;;;;;;;;;;;;8.57;66.06;101500.00;5093672;28;19912;-78
2024/02/05 01:36:13;;;;;;;;;;;;;;;8.50;67.01;101491.38;5097304;28;20377;-77
2024/02/05 01:39:02;;;;;;;;;;;;;;;8.55;67.02;101493.22;5092791;28;19920;-78
2024/02/05 01:41:53;;;;;;;;;;;;;;;8.69;65.95;101490.66;5092572;28;19912;-78
2024/02/05 01:44:45;;;;;;;;;;;;;;;8.76;65.80;101486.56;5096808;28;19913;-78
2024/02/05 01:47:38;;;;;;;;;;;;;;;8.76;65.60;101475.72;5094360;28;19912;-77
2024/02/05 01:50:30;;;;;;;;;;;;;;;8.80;65.23;101478.66;5092233;28;20381;-76
2024/02/05 01:53:20;;;;;;;;;;;;;;;8.84;64.31;101482.41;5095956;28;20300;-78
2024/02/05 01:56:08;;;;;;;;;;;;;;;8.68;64.67;101480.94;5093249;28;19915;-77
2024/02/05 01:59:01;;;;;;;;;;;;;;;8.66;65.30;101477.69;5092690;28;19916;-78
2024/02/05 02:01:50;;;;;;;;;;;;;;;8.53;65.89;101473.75;5095123;28;20301;-78
2024/02/05 02:04:40;;;;;;;;;;;;;;;8.66;66.27;101475.78;5093113;28;19912;-76
2024/02/05 02:07:31;;;;;;;;;;;;;;;8.60;65.03;101471.50;5096298;28;20369;-78
2024/02/05 02:10:20;;;;;;;;;;;;;;;8.31;66.50;101476.06;5094653;28;19975;-77
2024/02/05 02:13:12;;;;;;;;;;;;;;;8.29;66.87;101479.00;5092438;28;19912;-77
2024/02/05 02:16:02;;;;;;;;;;;;;;;8.28;67.64;101465.75;5095750;28;19912;-77
2024/02/05 02:18:54;;;;;;;;;;;;;;;8.29;66.75;101468.16;5091544;28;19915;-78
2024/02/05 02:21:45;;;;;;;;;;;;;;;8.44;66.21;101453.72;5097391;28;19912;-77
2024/02/05 02:24:37;;;;;;;;;;;;;;;8.45;65.28;101461.59;5095138;28;19912;-78
2024/02/05 02:27:28;;;;;;;;;;;;;;;8.40;65.46;101469.75;5092736;28;20304;-77
2024/02/05 02:30:21;;;;;;;;;;;;;;;8.08;66.02;101461.25;5096646;28;19916;-78
2024/02/05 02:33:24;;;;;;;;;;;;;;;7.99;66.71;101468.34;5094562;28;19912;-78
2024/02/05 02:36:26;;;;;;;;;;;;;;;8.00;66.77;101475.41;5091524;28;19916;-78
2024/02/05 02:39:22;;;;;;;;;;;;;;;8.07;66.37;101476.72;5098303;28;19916;-80
2024/02/05 02:42:16;;;;;;;;;;;;;;;8.25;66.33;101471.72;5092422;28;19915;-77
2024/02/05 02:45:09;;;;;;;;;;;;;;;8.36;66.73;101473.31;5095777;28;20292;-77
2024/02/05 02:47:59;;;;;;;;;;;;;;;8.49;65.66;101476.19;5093610;28;19916;-77
2024/02/05 02:50:51;;;;;;;;;;;;;;;8.47;66.58;101481.09;5091637;28;19916;-77
2024/02/05 02:53:46;;;;;;;;;;;;;;;8.09;65.47;101479.13;5095292;28;20296;-78
2024/02/05 02:56:38;;;;;;;;;;;;;;;7.90;66.90;101486.28;5092682;28;19912;-77
2024/02/05 02:59:27;;;;;;;;;;;;;;;7.93;67.26;101472.97;5096301;28;20288;-77
2024/02/05 03:02:20;;;;;;;;;;;;;;;8.00;67.31;101478.91;5094476;28;19912;-78
2024/02/05 03:05:09;;;;;;;;;;;;;;;8.02;67.30;101475.94;5092145;28;20300;-77
2024/02/05 03:08:02;;;;;;;;;;;;;;;8.06;67.44;101477.00;5094429;28;19912;-79
2024/02/05 03:10:54;;;;;;;;;;;;;;;8.05;67.19;101472.66;5093737;28;19912;-78
2024/02/05 03:13:47;;;;;;;;;;;;;;;8.08;66.28;101480.22;5091455;28;19916;-77
2024/02/05 03:16:36;;;;;;;;;;;;;;;8.04;66.18;101481.88;5094303;28;19912;-80
2024/02/05 03:19:28;;;;;;;;;;;;;;;7.89;66.99;101479.25;5092702;28;19916;-77
2024/02/05 03:22:20;;;;;;;;;;;;;;;7.89;67.55;101480.06;5096267;28;19912;-79
2024/02/05 03:25:12;;;;;;;;;;;;;;;7.93;67.19;101474.88;5094206;28;19916;-79
2024/02/05 03:28:04;;;;;;;;;;;;;;;7.87;67.83;101481.44;5091703;28;20361;-79
2024/02/05 03:30:56;;;;;;;;;;;;;;;7.76;68.26;101469.84;5095660;28;19912;-79
2024/02/05 03:33:49;;;;;;;;;;;;;;;7.66;68.83;101470.69;5093074;28;19912;-79
2024/02/05 03:36:41;;;;;;;;;;;;;;;7.61;69.01;101478.03;5091238;28;20389;-77
2024/02/05 03:39:33;;;;;;;;;;;;;;;7.57;69.06;101485.06;5094815;28;20543;-79
2024/02/05 03:42:25;;;;;;;;;;;;;;;7.48;68.51;101476.69;5092388;28;19916;-79
2024/02/05 03:45:17;;;;;;;;;;;;;;;7.39;68.51;101477.53;5095820;28;19916;-77
2024/02/05 03:48:09;;;;;;;;;;;;;;;7.61;67.58;101478.03;5094012;28;20305;-77
2024/02/05 03:51:01;;;;;;;;;;;;;;;7.73;67.21;101464.97;5091314;28;19911;-78
2024/02/05 03:53:53;;;;;;;;;;;;;;;7.80;67.01;101470.09;5095045;28;19915;-77
2024/02/05 03:56:45;;;;;;;;;;;;;;;7.76;66.11;101469.03;5092783;28;19916;-77
2024/02/05 03:59:40;;;;;;;;;;;;;;;7.73;66.66;101468.47;5094481;28;19919;-78
2024/02/05 04:02:32;;;;;;;;;;;;;;;7.77;66.44;101470.66;5101228;28;19912;-77
2024/02/05 04:05:24;;;;;;;;;;;;;;;7.72;66.42;101460.63;5095554;28;20384;-78
2024/02/05 04:08:16;;;;;;;;;;;;;;;7.79;66.00;101463.03;5096679;28;19912;-77
2024/02/05 04:11:08;;;;;;;;;;;;;;;7.78;65.85;101458.72;5096940;28;20602;-78
2024/02/05 04:14:00;;;;;;;;;;;;;;;7.73;65.98;101454.94;5095048;28;19911;-77
2024/02/05 04:16:55;;;;;;;;;;;;;;;7.66;66.10;101462.56;5098172;28;19912;-79
2024/02/05 04:19:46;;;;;;;;;;;;;;;7.62;66.56;101458.78;5096748;28;19916;-78
2024/02/05 04:22:39;;;;;;;;;;;;;;;7.65;66.04;101455.53;5101407;28;19915;-80
2024/02/05 04:25:31;;;;;;;;;;;;;;;7.63;66.71;101455.00;5095611;28;19915;-77
2024/02/05 04:28:23;;;;;;;;;;;;;;;7.54;66.79;101456.66;5098652;28;19915;-77
2024/02/05 04:31:21;;;;;;;;;;;;;;;7.64;67.06;101459.31;5101521;28;19915;-78
2024/02/05 04:34:13;;;;;;;;;;;;;;;7.53;66.56;101459.63;5099367;28;19912;-78
2024/02/05 04:37:05;;;;;;;;;;;;;;;7.45;66.82;101452.09;5096002;28;19919;-78
2024/02/05 04:39:57;;;;;;;;;;;;;;;7.46;66.98;101451.81;5100063;28;19916;-77
2024/02/05 04:42:49;;;;;;;;;;;;;;;7.47;66.56;101450.72;5097636;28;19916;-77
2024/02/05 04:45:39;;;;;;;;;;;;;;;7.58;66.80;101444.19;5098284;28;19912;-77
2024/02/05 04:48:31;;;;;;;;;;;;;;;7.70;66.82;101438.47;5095613;28;19912;-78
2024/02/05 04:51:23;;;;;;;;;;;;;;;7.77;66.92;101443.59;5094290;28;19912;-78
2024/02/05 04:54:15;;;;;;;;;;;;;;;7.72;66.78;101449.81;5098021;28;19919;-77
2024/02/05 04:57:07;;;;;;;;;;;;;;;7.64;66.82;101453.91;5095363;28;19912;-77
2024/02/05 04:59:59;;;;;;;;;;;;;;;7.64;66.54;101453.91;5093893;28;19920;-78
2024/02/05 05:02:51;;;;;;;;;;;;;;;7.60;66.99;101444.72;5097281;28;20381;-78
2024/02/05 05:05:43;;;;;;;;;;;;;;;7.52;67.20;101442.59;5093963;28;19912;-77
2024/02/05 05:08:35;;;;;;;;;;;;;;;7.53;67.06;101436.09;5089469;28;19920;-78
2024/02/05 05:11:25;;;;;;;;;;;;;;;7.55;67.33;101444.75;5093905;28;19912;-77
2024/02/05 05:14:17;;;;;;;;;;;;;;;7.43;67.00;101438.84;5094231;28;19912;-78
2024/02/05 05:17:09;;;;;;;;;;;;;;;7.27;67.98;101432.66;5097491;28;19938;-77
2024/02/05 05:20:01;;;;;;;;;;;;;;;7.24;67.79;101438.63;5095528;28;19916;-77
2024/02/05 05:22:53;;;;;;;;;;;;;;;7.38;67.43;101438.84;5093054;28;19912;-78
2024/02/05 05:25:45;;;;;;;;;;;;;;;7.57;66.89;101445.25;5096826;28;20304;-79
2024/02/05 05:28:38;;;;;;;;;;;;;;;7.67;66.77;101445.22;5094833;28;19912;-77
2024/02/05 05:31:30;;;;;;;;;;;;;;;7.69;66.47;101437.66;5097901;28;19912;-78
2024/02/05 05:34:22;;;;;;;;;;;;;;;7.70;67.32;101439.28;5095936;28;19912;-78
2024/02/05 05:37:14;;;;;;;;;;;;;;;7.66;67.04;101449.03;5093004;28;20313;-78
2024/02/05 05:40:06;;;;;;;;;;;;;;;7.70;66.78;101457.41;5096909;28;19919;-77
2024/02/05 05:42:58;;;;;;;;;;;;;;;7.64;66.32;101458.50;5094919;28;19912;-78
2024/02/05 05:45:50;;;;;;;;;;;;;;;7.67;64.13;101455.25;5092062;28;19911;-78
2024/02/05 05:48:42;;;;;;;;;;;;;;;7.48;63.47;101459.66;5088428;28;20435;-78
2024/02/05 05:51:34;;;;;;;;;;;;;;;7.41;64.23;101451.84;5092956;28;19912;-79
2024/02/05 05:54:26;;;;;;;;;;;;;;;7.40;65.11;101452.13;5098703;28;19916;-79
2024/02/05 05:57:18;;;;;;;;;;;;;;;7.34;65.04;101454.03;5096546;28;19912;-78
2024/02/05 06:00:08;;;;;;;;;;;;;;;7.40;65.04;101458.34;5093000;28;19916;-78
2024/02/05 06:03:00;;;;;;;;;;;;;;;7.55;63.92;101471.81;5091060;28;20377;-76
2024/02/05 06:05:52;;;;;;;;;;;;;;;7.40;63.96;101466.47;5093823;28;19912;-78
2024/02/05 06:08:44;;;;;;;;;;;;;;;7.33;64.12;101460.50;5091953;28;20377;-77
2024/02/05 06:11:36;;;;;;;;;;;;;;;7.29;63.96;101465.66;5096008;28;19916;-77
2024/02/05 06:14:28;;;;;;;;;;;;;;;7.25;63.88;101464.59;5093425;28;20288;-78
2024/02/05 06:17:20;;;;;;;;;;;;;;;7.23;63.60;101455.94;5095628;28;19916;-76
2024/02/05 06:20:12;;;;;;;;;;;;;;;7.31;63.04;101460.00;5094872;28;19916;-77
2024/02/05 06:23:04;;;;;;;;;;;;;;;7.14;64.09;101456.78;5094033;28;20364;-77
2024/02/05 06:25:57;;;;;;;;;;;;;;;7.13;63.92;101465.97;5092669;28;19917;-77
2024/02/05 06:28:49;;;;;;;;;;;;;;;7.40;67.28;101461.03;5093614;28;19912;-76
2024/02/05 06:31:41;;;;;;;;;;;;;;;7.68;63.91;101457.69;5091905;28;19924;-77
2024/02/05 06:34:33;;;;;;;;;;;;;;;7.78;62.99;101462.22;5080707;28;19912;-80
2024/02/05 06:37:23;;;;;;;;;;;;;;;8.07;63.49;101454.25;5093120;28;20377;-77
2024/02/05 06:40:15;;;;;;;;;;;;;;;8.08;61.62;101466.66;5097219;28;19915;-78
2024/02/05 06:43:07;;;;;;;;;;;;;;;7.59;60.37;101488.31;5099120;28;19916;-76
2024/02/05 06:45:59;;;;;;;;;;;;;;;7.30;60.55;101480.00;5095813;28;19911;-77
2024/02/05 06:48:51;;;;;;;;;;;;;;;7.10;61.29;101488.97;5095330;28;19912;-76
2024/02/05 06:51:41;;;;;;;;;;;;;;;7.20;61.47;101485.44;5095504;28;20424;-78
2024/02/05 06:54:30;;;;;;;;;;;;;;;7.25;61.40;101480.03;5090958;28;19927;-76
2024/02/05 06:57:22;;;;;;;;;;;;;;;7.35;62.10;101500.81;5107065;28;20392;-77
2024/02/05 07:00:12;;;;;;;;;;;;;;;7.24;61.66;101498.16;5102030;28;19916;-76
2024/02/05 07:03:04;;;;;;;;;;;;;;;7.16;62.62;101506.00;5122254;28;19912;-77
2024/02/05 07:05:56;;;;;;;;;;;;;;;7.26;62.94;101506.78;5122047;28;19912;-77
2024/02/05 07:08:46;;;;;;;;;;;;;;;7.23;62.62;101511.94;5100359;28;20320;-78
2024/02/05 07:11:38;;;;;;;;;;;;;;;7.20;63.07;101512.50;5101006;28;19916;-77
2024/02/05 07:14:30;;;;;;;;;;;;;;;7.19;63.16;101511.69;5094623;28;19912;-78
2024/02/05 07:17:31;;;;;;;;;;;;;;;7.25;63.46;101526.81;5091764;28;20301;-78
2024/02/05 07:20:23;;;;;;;;;;;;;;;7.37;64.01;101523.81;5096100;28;19920;-76
2024/02/05 07:23:15;;;;;;;;;;;;;;;8.47;60.16;101526.34;5094334;28;19915;-76
2024/02/05 07:26:05;;;;;;;;;;;;;;;7.89;62.04;101541.53;5097315;28;19912;-77
2024/02/05 07:28:57;;;;;;;;;;;;;;;7.95;61.74;101545.84;5093234;28;20126;-78
2024/02/05 07:31:49;;;;;;;;;;;;;;;7.97;62.14;101540.97;5094517;28;19937;-76
2024/02/05 07:34:41;;;;;;;;;;;;;;;8.76;60.27;101545.41;5101224;28;19912;-77
2024/02/05 07:37:33;;;;;;;;;;;;;;;8.42;60.80;101545.38;5098408;28;19920;-78
2024/02/05 07:40:21;;;;;;;;;;;;;;;8.28;61.00;101555.97;5096708;28;19924;-78
2024/02/05 07:43:16;;;;;;;;;;;;;;;8.25;61.06;101558.41;5100667;28;19916;-78
2024/02/05 07:46:06;;;;;;;;;;;;;;;8.25;61.77;101570.06;5097403;28;19912;-77
2024/02/05 07:48:58;;;;;;;;;;;;;;;8.09;61.48;101572.03;5097003;28;19912;-78
2024/02/05 07:51:51;;;;;;;;;;;;;;;8.06;62.68;101579.91;5099448;28;19912;-77
2024/02/05 07:54:43;;;;;;;;;;;;;;;7.97;63.52;101584.28;5096846;28;19912;-77
2024/02/05 07:57:33;;;;;;;;;;;;;;;7.91;63.44;101580.78;5100387;28;19916;-77
2024/02/05 08:00:25;;;;;;;;;;;;;;;7.91;63.62;101585.38;5098646;28;19920;-77
2024/02/05 08:03:17;;;;;;;;;;;;;;;7.93;63.31;101583.19;5096414;28;19916;-78
2024/02/05 08:06:09;;;;;;;;;;;;;;;7.96;63.34;101588.09;5100164;28;19916;-78
2024/02/05 08:08:58;;;;;;;;;;;;;;;8.01;63.72;101586.16;5096547;28;19912;-78
2024/02/05 08:11:50;;;;;;;;;;;;;;;8.02;63.69;101589.69;5101558;28;20377;-79
2024/02/05 08:14:40;;;;;;;;;;;;;;;8.16;64.31;101598.84;5099434;28;19912;-78
2024/02/05 08:17:29;;;;;;;;;;;;;;;8.13;64.13;101591.25;5096109;28;19912;-77
2024/02/05 08:20:21;;;;;;;;;;;;;;;8.15;64.04;101594.50;5101082;28;19920;-77
2024/02/05 08:23:13;;;;;;;;;;;;;;;8.08;64.51;101596.69;5098704;28;19912;-77
2024/02/05 08:26:05;;;;;;;;;;;;;;;8.13;64.70;101592.06;5095378;28;20320;-77
2024/02/05 08:28:57;;;;;;;;;;;;;;;8.21;64.84;101592.59;5096432;28;19912;-78
2024/02/05 08:31:49;;;;;;;;;;;;;;;8.26;64.88;101595.28;5098211;28;19912;-77
2024/02/05 08:34:41;;;;;;;;;;;;;;;8.32;65.91;101600.44;5095340;28;20392;-77
2024/02/05 08:37:33;;;;;;;;;;;;;;;8.42;65.92;101592.25;5098492;28;19912;-77
2024/02/05 08:40:25;;;;;;;;;;;;;;;8.47;66.85;101600.34;5096953;28;19924;-77
2024/02/05 08:43:14;;;;;;;;;;;;;;;8.48;66.31;101593.81;5099332;28;19912;-77
2024/02/05 08:46:06;;;;;;;;;;;;;;;8.46;66.90;101595.22;5101494;28;20376;-78
2024/02/05 08:48:58;;;;;;;;;;;;;;;8.49;66.87;101595.44;5095551;28;19912;-78
2024/02/05 08:51:50;;;;;;;;;;;;;;;8.57;67.24;101599.47;5099157;28;19916;-78
2024/02/05 08:54:39;;;;;;;;;;;;;;;8.67;67.63;101593.19;5101505;28;19911;-76
2024/02/05 08:57:32;;;;;;;;;;;;;;;8.76;68.04;101594.22;5094471;28;19912;-79
2024/02/05 09:00:21;;;;;;;;;;;;;;;8.78;68.01;101602.88;5098301;28;19916;-78
2024/02/05 09:03:11;;;;;;;;;;;;;;;8.90;68.22;101597.91;5096194;28;19916;-78
2024/02/05 09:06:03;;;;;;;;;;;;;;;8.91;68.53;101597.63;5099555;28;19912;-77
2024/02/05 09:09:00;;;;;;;;;;;;;;;9.00;68.60;101586.97;5095933;28;19912;-78
2024/02/05 09:11:52;;;;;;;;;;;;;;;9.06;68.22;101595.88;5095284;28;19915;-77
2024/02/05 09:14:41;;;;;;;;;;;;;;;9.12;68.15;101595.56;5099065;28;19912;-78
2024/02/05 09:17:33;;;;;;;;;;;;;;;9.20;68.74;101591.44;5096445;28;19912;-78
2024/02/05 09:20:23;;;;;;;;;;;;;;;9.27;69.26;101591.91;5094363;28;19920;-77
2024/02/05 09:23:15;;;;;;;;;;;;;;;9.39;68.31;101600.50;5098257;28;19912;-76
2024/02/05 09:26:10;;;;;;;;;;;;;;;9.42;68.24;101599.94;5095582;28;19916;-78
2024/02/05 09:29:02;;;;;;;;;;;;;;;9.49;68.61;101602.31;5095047;28;19916;-77
2024/02/05 09:31:57;;;;;;;;;;;;;;;9.61;67.56;101602.72;5097289;28;19912;-78
2024/02/05 09:34:47;;;;;;;;;;;;;;;9.75;67.26;101598.25;5095202;28;19916;-76
2024/02/05 09:37:38;;;;;;;;;;;;;;;9.72;67.65;101605.06;5097940;28;19912;-77
2024/02/05 09:40:28;;;;;;;;;;;;;;;9.80;67.12;101600.91;5096076;28;20293;-78
2024/02/05 09:43:20;;;;;;;;;;;;;;;9.97;66.58;101600.44;5100445;28;19912;-78
2024/02/05 09:46:12;;;;;;;;;;;;;;;10.10;66.62;101599.75;5097151;28;19915;-77
2024/02/05 09:49:01;;;;;;;;;;;;;;;10.12;66.60;101601.06;5094460;28;19912;-76
2024/02/05 09:51:54;;;;;;;;;;;;;;;10.17;66.72;101611.91;5099231;28;20296;-78
2024/02/05 09:54:53;;;;;;;;;;;;;;;10.27;66.51;101609.06;5096482;28;19912;-79
2024/02/05 09:57:40;;;;;;;;;;;;;;;10.34;66.34;101610.63;5093425;28;19911;-78
2024/02/05 10:00:32;;;;;;;;;;;;;;;10.41;65.82;101608.38;5097666;28;20372;-78
2024/02/05 10:03:24;;;;;;;;;;;;;;;10.51;66.03;101609.06;5100574;28;19912;-77
2024/02/05 10:06:17;;;;;;;;;;;;;;;10.56;65.13;101610.88;5092840;28;19920;-78
2024/02/05 10:09:10;;;;;;;;;;;;;;;10.74;64.79;101620.97;5093793;28;19912;-77
2024/02/05 10:12:00;;;;;;;;;;;;;;;10.80;65.02;101619.78;5095147;28;19911;-79
2024/02/05 10:14:49;;;;;;;;;;;;;;;10.99;64.43;101627.94;5098578;28;20297;-78
2024/02/05 10:17:41;;;;;;;;;;;;;;;11.06;63.89;101625.66;5095840;28;20369;-77
2024/02/05 10:20:34;;;;;;;;;;;;;;;11.15;63.17;101621.97;5093756;28;19919;-79
2024/02/05 10:23:26;;;;;;;;;;;;;;;11.26;63.46;101606.28;5097127;28;19912;-77
2024/02/05 10:26:18;;;;;;;;;;;;;;;11.41;62.78;101619.63;5094800;28;19916;-77
2024/02/05 10:29:10;;;;;;;;;;;;;;;11.99;60.41;101619.94;5093316;28;19916;-78
2024/02/05 10:32:04;;;;;;;;;;;;;;;11.95;60.68;101626.31;5097151;28;19912;-79
2024/02/05 10:34:55;;;;;;;;;;;;;;;12.17;59.98;101618.25;5094749;28;20382;-78
2024/02/05 10:37:47;;;;;;;;;;;;;;;12.09;59.71;101620.88;5097787;28;19912;-77
2024/02/05 10:40:40;;;;;;;;;;;;;;;12.02;60.11;101620.47;5099647;28;19924;-76
2024/02/05 10:43:30;;;;;;;;;;;;;;;12.02;59.86;101612.28;5095168;28;19912;-75
2024/02/05 10:46:32;;;;;;;;;;;;;;;12.23;58.46;101617.03;5097138;28;19912;-75
2024/02/05 10:49:21;;;;;;;;;;;;;;;12.21;59.31;101610.25;5094298;28;20389;-77
2024/02/05 10:52:15;;;;;;;;;;;;;;;12.41;58.55;101607.91;5093579;28;19916;-75
2024/02/05 10:55:08;;;;;;;;;;;;;;;12.47;57.66;101600.44;5095855;28;19912;-78
2024/02/05 10:58:02;;;;;;;;;;;;;;;12.70;57.66;101601.28;5095897;28;19912;-76
2024/02/05 11:00:54;;;;;;;;;;;;;;;13.03;56.24;101593.69;5097297;28;19916;-76
2024/02/05 11:03:43;;;;;;;;;;;;;;;13.36;55.62;101586.84;5096519;28;19915;-77
2024/02/05 11:06:36;;;;;;;;;;;;;;;13.61;54.50;101582.69;5094927;28;19912;-76
2024/02/05 11:09:28;;;;;;;;;;;;;;;13.80;53.98;101580.50;5102619;28;19912;-77
2024/02/05 11:12:20;;;;;;;;;;;;;;;14.03;53.06;101581.22;5099988;28;19915;-77
2024/02/05 11:15:14;;;;;;;;;;;;;;;14.13;52.71;101575.47;5116846;28;19912;-78
2024/02/05 11:18:13;;;;;;;;;;;;;;;14.29;52.12;101575.81;5099210;28;20297;-78
2024/02/05 11:21:06;;;;;;;;;;;;;;;14.34;51.40;101573.75;5096846;28;19920;-78
2024/02/05 11:23:58;;;;;;;;;;;;;;;14.52;51.63;101569.94;5100876;28;20420;-77
2024/02/05 11:26:50;;;;;;;;;;;;;;;14.75;50.65;101556.91;5097867;28;20373;-77
2024/02/05 11:29:41;;;;;;;;;;;;;;;14.78;50.18;101560.94;5102156;28;19912;-79
2024/02/05 11:32:40;;;;;;;;;;;;;;;14.85;50.23;101562.06;5099891;28;19912;-79
2024/02/05 11:35:32;;;;;;;;;;;;;;;14.86;49.90;101562.88;5097309;28;19912;-78
2024/02/05 11:38:24;;;;;;;;;;;;;;;14.94;50.41;101545.59;5096469;28;19915;-78
2024/02/05 11:41:22;;;;;;;;;;;;;;;15.08;49.78;101550.94;5101370;28;19924;-76
2024/02/05 11:44:15;;;;;;;;;;;;;;;15.18;49.62;101548.66;5095601;28;20396;-77
2024/02/05 11:47:10;;;;;;;;;;;;;;;15.46;49.17;101545.50;5100447;28;19912;-78
2024/02/05 11:50:00;;;;;;;;;;;;;;;15.34;49.13;101536.00;5097785;28;19912;-78
2024/02/05 11:52:49;;;;;;;;;;;;;;;15.45;49.27;101541.94;5102620;28;19912;-78
2024/02/05 11:55:39;;;;;;;;;;;;;;;15.45;49.15;101541.94;5098591;28;19999;-78
2024/02/05 11:58:30;;;;;;;;;;;;;;;15.51;48.71;101537.09;5097033;28;19912;-77
2024/02/05 12:01:21;;;;;;;;;;;;;;;15.63;48.55;101540.00;5100863;28;19916;-78
2024/02/05 12:04:12;;;;;;;;;;;;;;;15.60;48.13;101526.91;5094255;28;19919;-77
2024/02/05 12:07:04;;;;;;;;;;;;;;;15.78;48.31;101522.97;5094623;28;19912;-78
2024/02/05 12:09:57;;;;;;;;;;;;;;;15.78;48.06;101522.97;5099750;28;19916;-79
2024/02/05 12:12:49;;;;;;;;;;;;;;;15.79;47.93;101514.44;5097098;28;19912;-78
2024/02/05 12:15:38;;;;;;;;;;;;;;;15.79;47.97;101508.13;5099365;28;20372;-81
2024/02/05 12:18:30;;;;;;;;;;;;;;;15.77;47.67;101507.66;5093845;28;20292;-78
2024/02/05 12:21:24;;;;;;;;;;;;;;;15.85;47.43;101501.31;5101071;28;19916;-78
2024/02/05 12:24:16;;;;;;;;;;;;;;;15.91;46.38;101505.47;5098689;28;19920;-77
2024/02/05 12:27:08;;;;;;;;;;;;;;;15.91;46.79;101502.72;5096664;28;19912;-77
2024/02/05 12:30:09;;;;;;;;;;;;;;;15.92;47.64;101501.59;5094070;28;19912;-78
2024/02/05 12:33:01;;;;;;;;;;;;;;;16.07;47.25;101490.03;5097067;28;19915;-79
2024/02/05 12:35:57;;;;;;;;;;;;;;;16.11;46.38;101498.41;5094821;28;19912;-77
2024/02/05 12:38:54;;;;;;;;;;;;;;;16.16;46.20;101492.72;5094979;28;19912;-79
2024/02/05 12:41:46;;;;;;;;;;;;;;;16.11;46.42;101493.72;5096672;28;19924;-78
2024/02/05 12:44:37;;;;;;;;;;;;;;;16.12;46.76;101484.38;5099395;28;19912;-77
2024/02/05 12:47:28;;;;;;;;;;;;;;;16.07;46.67;101491.97;5097380;28;19912;-77
2024/02/05 12:50:20;;;;;;;;;;;;;;;16.10;46.51;101486.63;5095207;28;19912;-78
2024/02/05 12:53:10;;;;;;;;;;;;;;;16.02;46.78;101484.75;5099860;28;20388;-78
2024/02/05 12:56:02;;;;;;;;;;;;;;;16.09;46.65;101482.31;5091780;28;19915;-79
2024/02/05 12:58:55;;;;;;;;;;;;;;;16.16;46.22;101477.06;5094414;28;19912;-79
2024/02/05 13:01:51;;;;;;;;;;;;;;;16.05;46.30;101478.59;5098318;28;19923;-79
2024/02/05 13:04:43;;;;;;;;;;;;;;;16.14;46.36;101479.34;5095994;28;20304;-78
2024/02/05 13:07:37;;;;;;;;;;;;;;;16.17;46.39;101470.44;5098293;28;19912;-78
2024/02/05 13:10:27;;;;;;;;;;;;;;;16.32;46.20;101476.47;5097701;28;19911;-79
2024/02/05 13:13:19;;;;;;;;;;;;;;;16.34;45.98;101471.47;5094760;28;19916;-81
2024/02/05 13:16:11;;;;;;;;;;;;;;;16.19;45.92;101467.38;5098072;28;19912;-78
2024/02/05 13:19:01;;;;;;;;;;;;;;;16.31;45.77;101467.44;5091865;28;20300;-79
2024/02/05 13:21:53;;;;;;;;;;;;;;;16.44;45.45;101463.63;5094924;28;19920;-79
2024/02/05 13:24:45;;;;;;;;;;;;;;;16.45;45.53;101462.47;5113148;28;19920;-80
2024/02/05 13:27:40;;;;;;;;;;;;;;;16.53;45.68;101450.59;5101582;28;19916;-82
2024/02/05 13:30:31;;;;;;;;;;;;;;;16.44;45.26;101451.81;5093243;28;19912;-79
2024/02/05 13:33:23;;;;;;;;;;;;;;;16.08;46.27;101450.50;5096428;28;19916;-78
2024/02/05 13:36:15;;;;;;;;;;;;;;;15.74;47.07;101439.78;5099435;28;19916;-79
2024/02/05 13:39:07;;;;;;;;;;;;;;;15.55;47.44;101453.88;5092650;28;19916;-79
2024/02/05 13:41:56;;;;;;;;;;;;;;;15.70;47.43;101455.25;5100137;28;19920;-79
2024/02/05 13:44:48;;;;;;;;;;;;;;;15.58;47.47;101457.94;5103392;28;19915;-80
2024/02/05 13:47:35;;;;;;;;;;;;;;;15.64;47.66;101453.88;5104251;28;19916;-77
2024/02/05 13:50:22;;;;;;;;;;;;;;;15.60;47.65;101444.66;5104387;28;20304;-80
2024/02/05 13:53:14;;;;;;;;;;;;;;;15.67;47.31;101451.25;5101047;28;19916;-76
2024/02/05 13:56:04;;;;;;;;;;;;;;;15.79;47.13;101454.09;5104799;28;19916;-80
2024/02/05 13:58:56;;;;;;;;;;;;;;;15.85;46.70;101451.16;5099779;28;19915;-80
2024/02/05 14:01:51;;;;;;;;;;;;;;;15.80;46.56;101450.19;5100312;28;19920;-78
2024/02/05 14:04:44;;;;;;;;;;;;;;;15.90;46.97;101451.75;5103680;28;20524;-79
2024/02/05 14:07:36;;;;;;;;;;;;;;;15.86;47.21;101453.56;5109132;28;19912;-78
2024/02/05 14:10:28;;;;;;;;;;;;;;;15.85;47.53;101453.91;5112879;28;19912;-81
2024/02/05 14:13:20;;;;;;;;;;;;;;;15.73;47.45;101452.69;5102508;28;19912;-79
2024/02/05 14:16:12;;;;;;;;;;;;;;;15.78;47.37;101457.16;5079061;28;19912;-80
2024/02/05 14:19:04;;;;;;;;;;;;;;;15.83;47.30;101455.03;5089630;28;19916;-80
2024/02/05 14:21:51;;;;;;;;;;;;;;;15.85;47.02;101451.16;5119588;28;20323;-79
2024/02/05 14:24:41;;;;;;;;;;;;;;;15.70;47.73;101456.06;5123343;28;19916;-80
2024/02/05 14:27:33;;;;;;;;;;;;;;;15.69;48.15;101453.69;5119650;28;19912;-80
2024/02/05 14:30:22;;;;;;;;;;;;;;;15.74;47.77;101456.22;5101278;28;19912;-79
2024/02/05 14:33:14;;;;;;;;;;;;;;;15.70;48.11;101445.09;5105214;28;19916;-79
2024/02/05 14:36:04;;;;;;;;;;;;;;;15.59;48.45;101443.91;5102522;28;20377;-78
2024/02/05 14:38:53;;;;;;;;;;;;;;;15.65;48.40;101448.03;5100895;28;19915;-80
2024/02/05 14:41:50;;;;;;;;;;;;;;;15.67;48.34;101445.78;5103005;28;19920;-81
2024/02/05 14:44:42;;;;;;;;;;;;;;;15.67;48.40;101450.44;5103898;28;19912;-80
2024/02/05 14:47:34;;;;;;;;;;;;;;;15.65;48.34;101448.03;5105500;28;19912;-77
2024/02/05 14:50:23;;;;;;;;;;;;;;;15.56;48.60;101455.50;5120348;28;20296;-79